Lady Ann Magee — 9HA2775 — position and weather

sailwx.info

Track history (hours):
 
Tides and Currents Weather Stations Pressure Air Temp Water Temp Dewpoint Dewpoint Depression Visibility Wind Speed Wind Dir Waves Ship Positions

Lady Ann Magee

Last reported at 2017-Dec-20 09:51 UTC. Time now 2018-Jan-18 17:57 UTC.
Position N 14°16' W 060°58'.
Warning: this ship's position is 29 days out of date.

Length 50 m; draft 3.2 m.

Type: Pleasure craft. MMSI: 215660000.

Date/timePositionNaut miles runAvg speedWind from/ knotsBaromVisibWave heightAir tempDewpointWater temp
2017-Dec-20 09:51N 14°16' W 060°58'514.4
2017-Dec-20 09:31N 14°18' W 060°53'714.2
2017-Dec-20 09:01N 14°21' W 060°46'713.8
2017-Dec-20 08:29N 14°24' W 060°39'  
2017-Dec-11 21:59N 28°13' W 016°10'613.5
2017-Dec-11 21:30N 28°18' W 016°05'713.2
2017-Dec-11 20:57N 28°23' W 015°60'612.8
2017-Dec-11 20:30N 28°27' W 015°55'1412.6
2017-Dec-11 19:24N 28°38' W 015°45'  
Track history (hours):
 
Tides and Currents Weather Stations Pressure Air Temp Water Temp Dewpoint Dewpoint Depression Visibility Wind Speed Wind Dir Waves Ship Positions

Lady Ann Magee

Last reported at 2017-Dec-20 09:51 UTC. Time now 2018-Jan-18 17:57 UTC.
Position N 14°16' W 060°58'.
Warning: this ship's position is 29 days out of date.

Length 50 m; draft 3.2 m.

Type: Pleasure craft. MMSI: 215660000.

Date/timePositionNaut miles runAvg speedWind from/ knotsBaromVisibWave heightAir tempDewpointWater temp
2017-Dec-20 09:51N 14°16' W 060°58'514.4
2017-Dec-20 09:31N 14°18' W 060°53'714.2
2017-Dec-20 09:01N 14°21' W 060°46'713.8
2017-Dec-20 08:29N 14°24' W 060°39'  
2017-Dec-11 21:59N 28°13' W 016°10'613.5
2017-Dec-11 21:30N 28°18' W 016°05'713.2
2017-Dec-11 20:57N 28°23' W 015°60'612.8
2017-Dec-11 20:30N 28°27' W 015°55'1412.6
2017-Dec-11 19:24N 28°38' W 015°45'  

Dump ship's entire track history